Decoded Metar for OITT (TABRIZ in IRAN) (IATA:TBZ) | Meteo·Mobile Aviation Weather
aviador You're here:

OITT Decoded Metar

TABRIZ in IRAN
Report Time2018-10-22 10:30:00
UTC Time2018-10-22 11:00:20
Flight Rules vfr VFR
Wind250° at 14 kt
W.Decomp.*RWY 30: 8.0 kt HW 11.5 kt LCW
W.Rank250° ranks 14
Current wind is above 250° avg. (8.8)
Visibility9999 m
Phenomena:N/A
Clouds:Scattered TCU 030 Hf
Few CB 035 Hf
Expected CloudBase > 5,200 ft AGL from Temp-Dew spread
CeilingNone
Temp20°C (ISA +14)
Dew Point07°C (43% RH)
AAT14.3°C
QNH1021 hPa
Density Alt5,945 ft
Elevation4,465 ft
Report Wrong Elevation
Raw Report
METAR OITT 221030Z 25014KT 9999 SCT030TCU FEW035CB 20/07 Q1021 A3016=

Extra information for OITT:More info

Metar Taf Metar & Taf Last 4 Metars F.Rules Stats Wind Profile Meteogram Temp Stats Airport Information Weather charts Add Link Nearby VenuesMetar ALERT Operation Metar Decoded Social comments